createdAt,value
2022-10-13T00:01:25.509Z,100083.00
2022-10-13T00:03:54.364Z,100112.00
2022-10-13T00:06:26.211Z,100113.00
2022-10-13T00:08:56.635Z,100090.00
2022-10-13T00:11:28.446Z,100097.00
2022-10-13T00:13:58.630Z,100115.00
2022-10-13T00:16:30.668Z,100073.00
2022-10-13T00:18:59.943Z,100073.00
2022-10-13T00:21:29.624Z,100104.00
2022-10-13T00:23:59.575Z,100093.00
2022-10-13T00:26:28.757Z,100096.00
2022-10-13T00:28:57.744Z,100087.00
2022-10-13T00:31:29.872Z,100098.00
2022-10-13T00:34:01.001Z,100107.00
2022-10-13T00:36:30.284Z,100097.00
2022-10-13T00:39:00.089Z,100069.00
2022-10-13T00:41:28.329Z,100095.00
2022-10-13T00:44:00.939Z,100103.00
2022-10-13T00:46:32.965Z,100091.00
2022-10-13T00:49:08.170Z,100106.00
2022-10-13T00:51:42.282Z,100092.00
2022-10-13T00:54:17.535Z,100088.00
2022-10-13T00:56:47.239Z,100090.00
2022-10-13T00:59:23.125Z,100096.00
2022-10-13T01:01:52.686Z,100088.00
2022-10-13T01:04:24.967Z,100061.00
2022-10-13T01:06:55.109Z,100096.00
2022-10-13T01:09:24.707Z,100095.00
2022-10-13T01:12:08.245Z,100096.00
2022-10-13T01:14:48.786Z,100089.00
2022-10-13T01:17:34.560Z,100082.00
2022-10-13T01:20:56.082Z,100077.00
2022-10-13T01:24:27.211Z,100075.00
2022-10-13T01:27:39.749Z,100080.00
2022-10-13T01:30:17.040Z,100068.00
2022-10-13T01:33:14.607Z,100083.00
2022-10-13T01:36:02.006Z,100084.00
2022-10-13T01:38:38.127Z,100070.00
2022-10-13T01:41:18.182Z,100069.00
2022-10-13T01:43:57.163Z,100077.00
2022-10-13T01:46:31.945Z,100048.00
2022-10-13T01:49:05.827Z,100067.00
2022-10-13T01:51:36.258Z,100060.00
2022-10-13T01:54:04.778Z,100068.00
2022-10-13T01:56:33.089Z,100062.00
2022-10-13T01:59:06.559Z,100064.00
2022-10-13T02:01:56.608Z,100045.00
2022-10-13T02:04:43.185Z,100048.00
2022-10-13T02:07:24.037Z,100049.00
2022-10-13T02:10:04.472Z,100050.00
2022-10-13T02:12:40.625Z,100053.00
2022-10-13T02:15:15.718Z,100050.00
2022-10-13T02:17:45.196Z,100045.00
2022-10-13T02:20:16.366Z,100060.00
2022-10-13T02:22:50.121Z,100051.00
2022-10-13T02:25:18.486Z,100027.00
2022-10-13T02:27:46.830Z,100029.00
2022-10-13T02:30:24.125Z,100055.00
2022-10-13T02:32:54.606Z,100053.00
2022-10-13T02:35:23.097Z,100060.00
2022-10-13T02:37:51.413Z,100042.00
2022-10-13T02:40:19.943Z,100047.00
2022-10-13T02:42:48.402Z,100047.00
2022-10-13T02:45:16.840Z,100041.00
2022-10-13T02:47:45.540Z,100006.00
2022-10-13T02:50:15.329Z,100018.00
2022-10-13T02:52:43.482Z,100030.00
2022-10-13T02:55:11.800Z,100032.00
2022-10-13T02:57:40.412Z,100027.00
2022-10-13T03:00:10.183Z,100006.00
2022-10-13T03:02:38.649Z,100025.00
2022-10-13T03:05:07.646Z,100006.00
2022-10-13T03:07:37.119Z,100032.00
2022-10-13T03:10:06.822Z,100011.00
2022-10-13T03:12:34.992Z,100011.00
2022-10-13T03:15:03.217Z,100007.00
2022-10-13T03:17:31.363Z,100014.00
2022-10-13T03:19:59.700Z,100017.00
2022-10-13T03:22:27.836Z,100017.00
2022-10-13T03:24:57.277Z,100008.00
2022-10-13T03:27:25.407Z,100021.00
2022-10-13T03:29:53.648Z,100004.00
2022-10-13T03:32:22.239Z,100012.00
2022-10-13T03:34:51.453Z,99996.00
2022-10-13T03:37:19.561Z,100005.00
2022-10-13T03:39:47.700Z,100012.00
2022-10-13T03:42:18.011Z,100004.00
2022-10-13T03:44:55.263Z,100000.00
2022-10-13T03:47:24.935Z,100013.00
2022-10-13T03:49:54.745Z,99981.00
2022-10-13T03:52:23.694Z,99998.00
2022-10-13T03:54:51.790Z,99991.00
2022-10-13T03:57:21.345Z,99991.00
2022-10-13T03:59:49.446Z,99986.00
2022-10-13T04:02:17.922Z,99990.00
2022-10-13T04:04:46.161Z,99992.00
2022-10-13T04:07:14.535Z,99983.00
2022-10-13T04:09:43.073Z,99995.00
2022-10-13T04:12:12.152Z,99993.00
2022-10-13T04:14:41.720Z,99990.00
2022-10-13T04:17:09.949Z,99987.00
2022-10-13T04:19:39.019Z,99987.00
2022-10-13T04:22:07.171Z,99999.00
2022-10-13T04:24:35.736Z,99997.00
2022-10-13T04:27:04.026Z,99989.00
2022-10-13T04:29:32.355Z,99991.00
2022-10-13T04:32:01.997Z,99986.00
2022-10-13T04:34:30.296Z,99977.00
2022-10-13T04:36:58.702Z,99984.00
2022-10-13T04:39:26.897Z,99977.00
2022-10-13T04:41:55.819Z,99946.00
2022-10-13T04:44:24.042Z,99976.00
2022-10-13T04:46:52.140Z,99980.00
2022-10-13T04:49:21.619Z,99963.00
2022-10-13T04:51:49.856Z,99969.00
2022-10-13T04:54:18.350Z,99939.00
2022-10-13T04:56:47.503Z,99965.00
2022-10-13T04:59:15.801Z,99967.00
2022-10-13T05:01:44.085Z,99972.00
2022-10-13T05:04:14.720Z,99953.00
2022-10-13T05:07:12.442Z,99960.00
2022-10-13T05:09:32.910Z,99972.00
2022-10-13T05:12:01.969Z,99966.00
2022-10-13T05:14:31.144Z,99951.00
2022-10-13T05:17:01.525Z,99958.00
2022-10-13T05:19:29.991Z,99944.00
2022-10-13T05:22:00.810Z,99950.00
2022-10-13T05:24:36.595Z,99948.00
2022-10-13T05:27:07.927Z,99941.00
2022-10-13T05:29:36.672Z,99947.00
2022-10-13T05:32:05.868Z,99948.00
2022-10-13T05:34:34.433Z,99934.00
2022-10-13T05:37:04.608Z,99939.00
2022-10-13T05:39:34.581Z,99959.00
2022-10-13T05:42:02.696Z,99956.00
2022-10-13T05:44:30.739Z,99953.00
2022-10-13T05:46:59.591Z,99949.00
2022-10-13T05:49:29.730Z,99959.00
2022-10-13T05:52:02.533Z,99965.00
2022-10-13T05:54:38.668Z,99960.00
2022-10-13T05:57:16.145Z,99950.00
2022-10-13T05:59:51.356Z,99965.00
2022-10-13T06:02:24.271Z,99937.00
2022-10-13T06:04:56.530Z,99963.00
2022-10-13T06:07:25.284Z,99969.00
2022-10-13T06:09:54.783Z,99961.00
2022-10-13T06:12:23.264Z,99968.00
2022-10-13T06:14:51.474Z,99968.00
2022-10-13T06:17:19.623Z,99972.00
2022-10-13T06:19:48.421Z,99932.00
2022-10-13T06:22:16.540Z,99950.00
2022-10-13T06:24:46.007Z,99980.00
2022-10-13T06:27:15.482Z,99975.00
2022-10-13T06:29:43.571Z,99977.00
2022-10-13T06:32:11.604Z,99981.00
2022-10-13T06:34:39.623Z,99978.00
2022-10-13T06:37:07.854Z,99978.00
2022-10-13T06:39:36.793Z,99975.00
2022-10-13T06:42:05.530Z,99993.00
2022-10-13T06:44:40.217Z,99991.00
2022-10-13T06:47:08.319Z,99985.00
2022-10-13T06:49:36.488Z,99985.00
2022-10-13T06:52:06.073Z,99993.00
2022-10-13T06:54:34.683Z,99988.00
2022-10-13T06:57:02.792Z,99991.00
2022-10-13T06:59:31.068Z,99990.00
2022-10-13T07:02:00.495Z,99984.00
2022-10-13T07:04:28.705Z,99986.00
2022-10-13T07:06:59.208Z,99987.00
2022-10-13T07:09:27.445Z,100005.00
2022-10-13T07:11:55.630Z,99999.00
2022-10-13T07:14:23.746Z,99990.00
2022-10-13T07:16:52.447Z,99993.00
2022-10-13T07:19:22.371Z,99989.00
2022-10-13T07:21:50.569Z,99954.00
2022-10-13T07:24:19.251Z,100000.00
2022-10-13T07:26:47.338Z,99988.00
2022-10-13T07:29:16.198Z,99978.00
2022-10-13T07:31:45.119Z,99972.00
2022-10-13T07:34:14.170Z,99968.00
2022-10-13T07:36:44.089Z,99959.00
2022-10-13T07:39:12.775Z,99961.00
2022-10-13T07:41:41.230Z,99960.00
2022-10-13T07:44:09.455Z,99959.00
2022-10-13T07:46:37.598Z,99956.00
2022-10-13T07:49:05.652Z,99957.00
2022-10-13T07:51:33.723Z,99948.00
2022-10-13T07:54:03.189Z,99955.00
2022-10-13T07:56:31.349Z,99951.00
2022-10-13T07:58:59.500Z,99956.00
2022-10-13T08:01:27.624Z,99961.00
2022-10-13T08:03:57.163Z,99947.00
2022-10-13T08:06:25.520Z,99927.00
2022-10-13T08:08:57.662Z,99946.00
2022-10-13T08:11:28.492Z,99934.00
2022-10-13T08:14:00.724Z,99935.00
2022-10-13T08:16:29.595Z,99932.00
2022-10-13T08:18:59.517Z,99931.00
2022-10-13T08:24:19.356Z,99931.00
2022-10-13T08:26:50.117Z,99933.00
2022-10-13T08:29:23.478Z,99917.00
2022-10-13T08:31:53.012Z,99929.00
2022-10-13T08:34:22.680Z,99932.00
2022-10-13T08:36:53.630Z,99928.00
2022-10-13T08:39:23.635Z,99927.00
2022-10-13T08:41:55.119Z,99922.00
2022-10-13T08:47:39.515Z,99916.00
2022-10-13T08:50:16.244Z,99929.00
2022-10-13T08:52:50.825Z,99904.00
2022-10-13T08:55:30.739Z,99917.00
2022-10-13T08:58:03.119Z,99914.00
2022-10-13T09:00:31.797Z,99921.00
2022-10-13T09:03:26.831Z,99917.00
2022-10-13T09:06:11.257Z,99925.00
2022-10-13T09:08:44.322Z,99909.00
2022-10-13T09:11:14.046Z,99920.00
2022-10-13T09:13:43.749Z,99918.00
2022-10-13T09:16:11.950Z,99912.00
2022-10-13T09:18:40.738Z,99909.00
2022-10-13T09:21:23.235Z,99916.00
2022-10-13T09:23:54.163Z,99917.00
2022-10-13T09:26:25.884Z,99906.00
2022-10-13T09:28:55.550Z,99908.00
2022-10-13T09:31:28.003Z,99904.00
2022-10-13T09:34:01.896Z,99903.00
2022-10-13T09:36:31.207Z,99900.00
2022-10-13T09:39:19.435Z,99900.00
2022-10-13T09:41:47.927Z,99899.00
2022-10-13T09:44:27.867Z,99898.00
2022-10-13T09:47:00.213Z,99895.00
2022-10-13T09:49:38.468Z,99899.00
2022-10-13T09:52:16.318Z,99903.00
2022-10-13T09:54:50.024Z,99896.00
2022-10-13T09:57:31.156Z,99893.00
2022-10-13T10:00:14.401Z,99886.00
2022-10-13T10:02:52.316Z,99847.00
2022-10-13T10:05:27.468Z,99881.00
2022-10-13T10:08:03.376Z,99861.00
2022-10-13T10:10:36.315Z,99886.00
2022-10-13T10:13:12.978Z,99842.00
2022-10-13T10:15:54.868Z,99877.00
2022-10-13T10:18:37.898Z,99880.00
2022-10-13T10:21:14.655Z,99876.00
2022-10-13T10:23:55.093Z,99849.00
2022-10-13T10:26:32.790Z,99876.00
2022-10-13T10:29:20.364Z,99865.00
2022-10-13T10:32:06.372Z,99859.00
2022-10-13T10:34:42.259Z,99861.00
2022-10-13T10:37:33.733Z,99852.00
2022-10-13T10:40:17.361Z,99845.00
2022-10-13T10:43:04.433Z,99846.00
2022-10-13T10:45:38.795Z,99845.00
2022-10-13T10:48:19.709Z,99847.00
2022-10-13T10:50:49.152Z,99849.00
2022-10-13T10:53:32.308Z,99848.00
2022-10-13T10:56:12.686Z,99833.00
2022-10-13T10:58:50.658Z,99838.00
2022-10-13T11:01:41.182Z,99826.00
2022-10-13T11:04:37.581Z,99829.00
2022-10-13T11:07:12.007Z,99824.00
2022-10-13T11:10:18.012Z,99825.00
2022-10-13T11:13:26.963Z,99824.00
2022-10-13T11:15:55.642Z,99820.00
2022-10-13T11:19:25.698Z,99811.00
2022-10-13T11:22:26.962Z,99830.00
2022-10-13T11:25:37.025Z,99808.00
2022-10-13T11:28:47.319Z,99800.00
2022-10-13T11:31:33.627Z,99797.00
2022-10-13T11:34:04.541Z,99800.00
2022-10-13T11:36:48.614Z,99799.00
2022-10-13T11:40:04.965Z,99795.00
2022-10-13T11:43:05.301Z,99796.00
2022-10-13T11:46:06.941Z,99803.00
2022-10-13T11:49:42.638Z,99787.00
2022-10-13T11:52:28.618Z,99791.00
2022-10-13T11:55:10.662Z,99795.00
2022-10-13T11:57:38.733Z,99784.00
2022-10-13T12:00:16.401Z,99781.00
2022-10-13T12:02:52.741Z,99791.00
2022-10-13T12:05:27.134Z,99781.00
2022-10-13T12:08:01.902Z,99786.00
2022-10-13T12:10:35.761Z,99785.00
2022-10-13T12:13:05.910Z,99788.00
2022-10-13T12:15:37.781Z,99772.00
2022-10-13T12:18:25.769Z,99776.00
2022-10-13T12:20:56.362Z,99778.00
2022-10-13T12:23:25.357Z,99776.00
2022-10-13T12:25:58.584Z,99773.00
2022-10-13T12:28:35.592Z,99778.00
2022-10-13T12:31:05.181Z,99776.00
2022-10-13T12:33:36.278Z,99781.00
2022-10-13T12:36:19.746Z,99781.00
2022-10-13T12:38:52.950Z,99766.00
2022-10-13T12:41:29.550Z,99758.00
2022-10-13T12:44:01.086Z,99771.00
2022-10-13T12:46:40.836Z,99764.00
2022-10-13T12:49:17.963Z,99761.00
2022-10-13T12:51:50.259Z,99773.00
2022-10-13T12:54:25.558Z,99754.00
2022-10-13T12:56:59.425Z,99742.00
2022-10-13T12:59:30.657Z,99748.00
2022-10-13T13:02:02.055Z,99755.00
2022-10-13T13:04:48.201Z,99744.00
2022-10-13T13:07:33.383Z,99730.00
2022-10-13T13:10:16.981Z,99740.00
2022-10-13T13:12:48.230Z,99739.00
2022-10-13T13:15:38.071Z,99735.00
2022-10-13T13:18:36.694Z,99729.00
2022-10-13T13:21:08.090Z,99725.00
2022-10-13T13:23:36.953Z,99717.00
2022-10-13T13:26:14.351Z,99728.00
2022-10-13T13:28:48.465Z,99718.00
2022-10-13T13:31:19.387Z,99724.00
2022-10-13T13:33:47.969Z,99710.00
2022-10-13T13:36:19.470Z,99720.00
2022-10-13T13:38:51.102Z,99719.00
2022-10-13T13:41:23.120Z,99719.00
2022-10-13T13:43:53.699Z,99712.00
2022-10-13T13:46:24.671Z,99699.00
2022-10-13T13:48:53.066Z,99706.00
2022-10-13T13:51:22.267Z,99713.00
2022-10-13T13:53:50.458Z,99704.00
2022-10-13T13:56:20.900Z,99713.00
2022-10-13T13:58:49.460Z,99697.00
2022-10-13T14:01:18.839Z,99680.00
2022-10-13T14:03:46.929Z,99700.00
2022-10-13T14:06:21.341Z,99704.00
2022-10-13T14:08:50.041Z,99708.00
2022-10-13T14:11:18.223Z,99697.00
2022-10-13T14:13:46.391Z,99691.00
2022-10-13T14:16:19.086Z,99698.00
2022-10-13T14:18:47.777Z,99686.00
2022-10-13T14:21:16.332Z,99676.00
2022-10-13T14:23:46.973Z,99671.00
2022-10-13T14:26:15.876Z,99682.00
2022-10-13T14:28:44.350Z,99674.00
2022-10-13T14:31:13.270Z,99674.00
2022-10-13T14:33:45.061Z,99674.00
2022-10-13T14:36:13.800Z,99681.00
2022-10-13T14:38:42.002Z,99680.00
2022-10-13T14:41:10.980Z,99683.00
2022-10-13T14:43:39.025Z,99676.00
2022-10-13T14:46:07.831Z,99671.00
2022-10-13T14:48:38.686Z,99679.00
2022-10-13T14:51:10.938Z,99680.00
2022-10-13T14:53:41.857Z,99680.00
2022-10-13T14:56:19.844Z,99685.00
2022-10-13T14:58:57.018Z,99675.00
2022-10-13T15:01:28.559Z,99679.00
2022-10-13T15:03:56.760Z,99673.00
2022-10-13T15:06:27.661Z,99680.00
2022-10-13T15:08:56.542Z,99684.00
2022-10-13T15:11:26.701Z,99683.00
2022-10-13T15:13:56.140Z,99677.00
2022-10-13T15:16:27.862Z,99684.00
2022-10-13T15:18:56.919Z,99678.00
2022-10-13T15:21:26.958Z,99680.00
2022-10-13T15:23:55.051Z,99666.00
2022-10-13T15:26:23.438Z,99679.00
2022-10-13T15:28:54.148Z,99669.00
2022-10-13T15:31:25.638Z,99682.00
2022-10-13T15:33:55.038Z,99673.00
2022-10-13T15:36:26.230Z,99675.00
2022-10-13T15:38:54.517Z,99684.00
2022-10-13T15:41:23.644Z,99647.00
2022-10-13T15:43:51.755Z,99675.00
2022-10-13T15:46:24.241Z,99676.00
2022-10-13T15:48:55.337Z,99673.00
2022-10-13T15:51:27.021Z,99674.00
2022-10-13T15:53:56.149Z,99670.00
2022-10-13T15:56:24.788Z,99664.00
2022-10-13T15:58:53.428Z,99663.00
2022-10-13T16:01:21.512Z,99669.00
2022-10-13T16:03:53.876Z,99666.00
2022-10-13T16:06:22.416Z,99672.00
2022-10-13T16:08:52.151Z,99658.00
2022-10-13T16:11:23.216Z,99673.00
2022-10-13T16:13:53.310Z,99680.00
2022-10-13T16:16:22.228Z,99676.00
2022-10-13T16:18:51.553Z,99676.00
2022-10-13T16:21:23.387Z,99673.00
2022-10-13T16:23:53.346Z,99681.00
2022-10-13T16:26:22.325Z,99676.00
2022-10-13T16:28:50.584Z,99678.00
2022-10-13T16:31:20.019Z,99674.00
2022-10-13T16:33:48.437Z,99677.00
2022-10-13T16:36:19.719Z,99684.00
2022-10-13T16:38:55.780Z,99684.00
2022-10-13T16:41:24.725Z,99682.00
2022-10-13T16:43:52.737Z,99695.00
2022-10-13T16:46:22.943Z,99700.00
2022-10-13T16:48:51.458Z,99694.00
2022-10-13T16:51:23.402Z,99692.00
2022-10-13T16:53:57.606Z,99695.00
2022-10-13T16:56:29.504Z,99659.00
2022-10-13T16:59:00.704Z,99689.00
2022-10-13T17:01:30.140Z,99683.00
2022-10-13T17:03:58.862Z,99693.00
2022-10-13T17:06:29.711Z,99684.00
2022-10-13T17:09:02.894Z,99692.00
2022-10-13T17:11:37.201Z,99690.00
2022-10-13T17:14:07.325Z,99705.00
2022-10-13T17:16:35.913Z,99696.00
2022-10-13T17:19:04.762Z,99725.00
2022-10-13T17:21:37.544Z,99714.00
2022-10-13T17:24:09.027Z,99708.00
2022-10-13T17:26:37.664Z,99700.00
2022-10-13T17:29:06.164Z,99704.00
2022-10-13T17:31:34.657Z,99712.00
2022-10-13T17:34:03.001Z,99708.00
2022-10-13T17:36:34.096Z,99714.00
2022-10-13T17:39:12.153Z,99711.00
2022-10-13T17:41:41.752Z,99703.00
2022-10-13T17:44:11.247Z,99710.00
2022-10-13T17:46:40.064Z,99704.00
2022-10-13T17:49:11.841Z,99723.00
2022-10-13T17:51:41.646Z,99710.00
2022-10-13T17:54:16.191Z,99715.00
2022-10-13T17:56:46.292Z,99707.00
2022-10-13T17:59:19.220Z,99714.00
2022-10-13T18:01:50.301Z,99707.00
2022-10-13T18:04:22.249Z,99713.00
2022-10-13T18:06:50.544Z,99706.00
2022-10-13T18:09:26.365Z,99699.00
2022-10-13T18:11:57.665Z,99688.00
2022-10-13T18:14:26.626Z,99705.00
2022-10-13T18:16:55.341Z,99690.00
2022-10-13T18:19:24.641Z,99685.00
2022-10-13T18:21:53.233Z,99693.00
2022-10-13T18:24:28.901Z,99696.00
2022-10-13T18:26:58.017Z,99682.00
2022-10-13T18:29:30.824Z,99677.00
2022-10-13T18:31:59.116Z,99675.00
2022-10-13T18:34:28.130Z,99688.00
2022-10-13T18:36:57.197Z,99671.00
2022-10-13T18:39:30.103Z,99674.00
2022-10-13T18:41:58.908Z,99677.00
2022-10-13T18:44:37.059Z,99678.00
2022-10-13T18:47:09.167Z,99662.00
2022-10-13T18:49:37.402Z,99681.00
2022-10-13T18:52:06.449Z,99668.00
2022-10-13T18:54:45.889Z,99681.00
2022-10-13T18:57:16.700Z,99684.00
2022-10-13T18:59:47.305Z,99680.00
2022-10-13T19:02:16.355Z,99673.00
2022-10-13T19:04:45.829Z,99640.00
2022-10-13T19:07:14.184Z,99668.00
2022-10-13T19:09:44.612Z,99670.00
2022-10-13T19:12:19.047Z,99670.00
2022-10-13T19:14:48.098Z,99634.00
2022-10-13T19:17:17.061Z,99676.00
2022-10-13T19:19:46.205Z,99662.00
2022-10-13T19:22:14.525Z,99672.00
2022-10-13T19:24:44.195Z,99683.00
2022-10-13T19:27:13.841Z,99681.00
2022-10-13T19:29:42.153Z,99688.00
2022-10-13T19:32:11.211Z,99682.00
2022-10-13T19:34:39.931Z,99685.00
2022-10-13T19:37:08.666Z,99689.00
2022-10-13T19:39:36.933Z,99683.00
2022-10-13T19:42:06.891Z,99678.00
2022-10-13T19:44:35.221Z,99682.00
2022-10-13T19:47:03.817Z,99680.00
2022-10-13T19:49:32.801Z,99679.00
2022-10-13T19:52:01.281Z,99675.00
2022-10-13T19:54:33.852Z,99675.00
2022-10-13T19:57:02.497Z,99682.00
2022-10-13T19:59:31.868Z,99668.00
2022-10-13T20:01:59.957Z,99678.00
2022-10-13T20:04:28.252Z,99671.00
2022-10-13T20:06:56.502Z,99677.00
2022-10-13T20:09:24.654Z,99685.00
2022-10-13T20:11:53.038Z,99687.00
2022-10-13T20:14:21.696Z,99674.00
2022-10-13T20:16:51.238Z,99678.00
2022-10-13T20:19:20.211Z,99677.00
2022-10-13T20:21:51.704Z,99685.00
2022-10-13T20:24:23.632Z,99681.00
2022-10-13T20:26:52.645Z,99686.00
2022-10-13T20:29:24.520Z,99680.00
2022-10-13T20:31:53.986Z,99682.00
2022-10-13T20:34:22.256Z,99680.00
2022-10-13T20:36:51.937Z,99680.00
2022-10-13T20:39:20.642Z,99683.00
2022-10-13T20:41:48.729Z,99667.00
2022-10-13T20:44:17.000Z,99669.00
2022-10-13T20:46:45.415Z,99672.00
2022-10-13T20:49:15.013Z,99677.00
2022-10-13T20:51:44.875Z,99677.00
2022-10-13T20:54:14.849Z,99661.00
2022-10-13T20:56:43.775Z,99678.00
2022-10-13T20:59:15.438Z,99668.00
2022-10-13T21:01:44.531Z,99670.00
2022-10-13T21:04:14.045Z,99675.00
2022-10-13T21:06:43.294Z,99680.00
2022-10-13T21:09:12.614Z,99644.00
2022-10-13T21:11:43.290Z,99665.00
2022-10-13T21:14:11.625Z,99585.00
2022-10-13T21:16:40.274Z,99673.00
2022-10-13T21:19:10.508Z,99667.00
2022-10-13T21:21:40.098Z,99662.00
2022-10-13T21:24:09.605Z,99657.00
2022-10-13T21:26:38.329Z,99659.00
2022-10-13T21:29:06.976Z,99665.00
2022-10-13T21:31:35.711Z,99662.00
2022-10-13T21:34:03.929Z,99658.00
2022-10-13T21:36:34.760Z,99658.00
2022-10-13T21:39:06.827Z,99655.00
2022-10-13T21:41:36.611Z,99652.00
2022-10-13T21:44:05.144Z,99655.00
2022-10-13T21:46:36.688Z,99655.00
2022-10-13T21:49:07.266Z,99651.00
2022-10-13T21:51:39.367Z,99647.00
2022-10-13T21:54:11.578Z,99652.00
2022-10-13T21:56:41.795Z,99650.00
2022-10-13T21:59:12.335Z,99660.00
2022-10-13T22:01:41.180Z,99660.00
2022-10-13T22:04:15.809Z,99664.00
2022-10-13T22:06:44.979Z,99662.00
2022-10-13T22:09:15.339Z,99634.00
2022-10-13T22:11:44.269Z,99655.00
2022-10-13T22:14:13.507Z,99659.00
2022-10-13T22:16:44.730Z,99609.00
2022-10-13T22:19:13.978Z,99649.00
2022-10-13T22:21:45.304Z,99648.00
2022-10-13T22:24:18.069Z,99647.00
2022-10-13T22:26:48.864Z,99650.00
2022-10-13T22:29:20.352Z,99648.00
2022-10-13T22:31:49.036Z,99651.00
2022-10-13T22:34:18.165Z,99654.00
2022-10-13T22:36:46.261Z,99643.00
2022-10-13T22:39:15.960Z,99646.00
2022-10-13T22:41:44.159Z,99647.00
2022-10-13T22:44:12.308Z,99643.00
2022-10-13T22:46:41.250Z,99640.00
2022-10-13T22:49:14.642Z,99641.00
2022-10-13T22:51:42.689Z,99634.00
2022-10-13T22:54:11.040Z,99607.00
2022-10-13T22:56:42.642Z,99632.00
2022-10-13T22:59:12.776Z,99639.00
2022-10-13T23:01:40.862Z,99638.00
2022-10-13T23:04:09.227Z,99591.00
2022-10-13T23:06:37.415Z,99625.00
2022-10-13T23:09:10.163Z,99630.00
2022-10-13T23:11:39.804Z,99627.00
2022-10-13T23:14:09.795Z,99630.00
2022-10-13T23:16:37.934Z,99630.00
2022-10-13T23:19:06.039Z,99631.00
2022-10-13T23:21:34.327Z,99624.00
2022-10-13T23:24:05.953Z,99621.00
2022-10-13T23:26:35.496Z,99616.00
2022-10-13T23:29:05.969Z,99622.00
2022-10-13T23:31:34.080Z,99625.00
2022-10-13T23:34:02.284Z,99616.00
2022-10-13T23:36:32.926Z,99615.00
2022-10-13T23:39:03.650Z,99612.00
2022-10-13T23:41:32.413Z,99593.00
2022-10-13T23:44:00.651Z,99612.00
2022-10-13T23:46:30.399Z,99601.00
2022-10-13T23:48:58.677Z,99612.00
2022-10-13T23:51:27.572Z,99617.00
2022-10-13T23:53:56.401Z,99608.00
2022-10-13T23:56:25.789Z,99595.00
2022-10-13T23:58:53.909Z,99606.00
